Time;durP1;ratioP1;P1;durP2;ratioP2;P2;SDS_P1;SDS_P2;PMS_P1;PMS_P2;Temp;Humidity;BMP_temperature;BMP_pressure;BME280_temperature;BME280_humidity;BME280_pressure;Samples;Min_cycle;Max_cycle;Signal;HPM_P1;HPM_P2
2022/12/18 00:02:18;;;;;;;3.60;3.30;;;;;;;;;;5070630;28;20709;-82
2022/12/18 00:04:45;;;;;;;4.70;2.90;;;;;;;;;;5069739;28;20225;-82
2022/12/18 00:07:13;;;;;;;4.50;3.20;;;;;;;;;;5070180;28;20629;-83
2022/12/18 00:09:40;;;;;;;3.23;2.93;;;;;;;;;;5068612;28;20205;-83
2022/12/18 00:12:08;;;;;;;4.00;2.77;;;;;;;;;;5068593;28;20205;-82
2022/12/18 00:14:35;;;;;;;4.23;3.30;;;;;;;;;;5069788;28;20205;-83
2022/12/18 00:17:02;;;;;;;3.70;3.40;;;;;;;;;;5068992;28;20308;-82
2022/12/18 00:19:29;;;;;;;4.30;3.70;;;;;;;;;;5036329;28;20245;-82
2022/12/18 00:21:57;;;;;;;9.47;4.90;;;;;;;;;;5068705;28;20198;-83
2022/12/18 00:24:26;;;;;;;4.20;3.37;;;;;;;;;;5060921;28;20222;-83
2022/12/18 00:26:53;;;;;;;5.23;3.47;;;;;;;;;;5065306;28;20207;-83
2022/12/18 00:29:20;;;;;;;5.40;4.90;;;;;;;;;;5072268;28;20205;-83
2022/12/18 00:31:47;;;;;;;11.30;9.17;;;;;;;;;;5072227;28;20262;-82
2022/12/18 00:34:14;;;;;;;5.60;4.97;;;;;;;;;;5073257;28;20197;-82
2022/12/18 00:36:42;;;;;;;7.70;6.97;;;;;;;;;;5069391;28;20201;-82
2022/12/18 00:39:10;;;;;;;5.67;4.43;;;;;;;;;;5073566;28;20798;-82
2022/12/18 00:44:23;;;;;;;4.00;3.60;;;;;;;;;;5061074;28;20280;-84
2022/12/18 00:46:51;;;;;;;4.00;3.70;;;;;;;;;;5072591;28;20220;-82
2022/12/18 00:49:18;;;;;;;3.80;3.50;;;;;;;;;;5071895;28;20705;-82
2022/12/18 00:51:45;;;;;;;4.47;3.40;;;;;;;;;;5060571;28;20201;-82
2022/12/18 00:54:12;;;;;;;2.97;2.67;;;;;;;;;;5073255;28;20577;-82
2022/12/18 00:56:41;;;;;;;2.70;2.50;;;;;;;;;;5060136;28;20208;-82
2022/12/18 00:59:08;;;;;;;3.37;2.80;;;;;;;;;;5072516;28;20197;-82
2022/12/18 01:01:35;;;;;;;3.57;3.27;;;;;;;;;;5060738;28;20193;-82
2022/12/18 01:04:03;;;;;;;3.27;3.00;;;;;;;;;;5072667;28;20235;-82
2022/12/18 01:06:30;;;;;;;3.50;3.00;;;;;;;;;;5073235;28;20193;-82
2022/12/18 01:08:57;;;;;;;3.00;2.80;;;;;;;;;;5072673;28;20288;-82
2022/12/18 01:11:24;;;;;;;5.53;5.03;;;;;;;;;;5072344;28;20710;-83
2022/12/18 01:13:54;;;;;;;5.40;4.47;;;;;;;;;;5073103;28;20259;-82
2022/12/18 01:16:21;;;;;;;5.43;4.30;;;;;;;;;;5072754;28;20205;-83
2022/12/18 01:18:48;;;;;;;6.20;3.53;;;;;;;;;;5072828;28;20225;-83
2022/12/18 01:21:16;;;;;;;3.37;3.00;;;;;;;;;;5072864;28;20239;-82
2022/12/18 01:23:43;;;;;;;3.43;3.13;;;;;;;;;;5073102;28;20212;-82
2022/12/18 01:26:12;;;;;;;3.67;3.37;;;;;;;;;;5063030;28;20700;-82
2022/12/18 01:28:39;;;;;;;3.90;3.50;;;;;;;;;;5065552;28;20309;-82
2022/12/18 01:31:18;;;;;;;5.57;3.43;;;;;;;;;;5062930;28;20208;-82
2022/12/18 01:33:45;;;;;;;6.17;4.00;;;;;;;;;;5072458;28;20283;-83
2022/12/18 01:36:16;;;;;;;4.40;3.77;;;;;;;;;;5072743;28;20267;-83
2022/12/18 01:38:43;;;;;;;4.53;3.97;;;;;;;;;;5072320;28;20209;-82
2022/12/18 01:41:10;;;;;;;4.57;4.17;;;;;;;;;;5072281;28;20633;-82
2022/12/18 01:43:45;;;;;;;3.83;3.53;;;;;;;;;;5065786;28;20305;-82
2022/12/18 01:46:12;;;;;;;3.77;3.47;;;;;;;;;;5052683;28;20233;-82
2022/12/18 01:48:40;;;;;;;3.87;3.20;;;;;;;;;;5072294;28;20231;-82
2022/12/18 01:51:09;;;;;;;3.90;2.90;;;;;;;;;;5070868;28;20205;-82
2022/12/18 01:53:37;;;;;;;4.43;3.40;;;;;;;;;;5059443;28;20306;-81
2022/12/18 01:56:05;;;;;;;3.00;2.80;;;;;;;;;;5071786;28;20737;-82
2022/12/18 01:58:36;;;;;;;3.63;3.33;;;;;;;;;;5072516;28;20201;-82
2022/12/18 02:01:03;;;;;;;3.67;3.10;;;;;;;;;;5072153;28;20266;-82
2022/12/18 02:03:30;;;;;;;3.03;2.73;;;;;;;;;;5070877;28;20213;-82
2022/12/18 02:06:01;;;;;;;3.73;3.33;;;;;;;;;;5070378;28;20227;-82
2022/12/18 02:08:34;;;;;;;6.53;2.97;;;;;;;;;;5065880;28;20204;-82
2022/12/18 02:11:06;;;;;;;3.13;2.90;;;;;;;;;;5070337;28;20702;-83
2022/12/18 02:13:38;;;;;;;4.03;3.63;;;;;;;;;;5059327;28;20209;-83
2022/12/18 02:16:09;;;;;;;14.80;9.60;;;;;;;;;;5071706;28;20197;-81
2022/12/18 02:18:38;;;;;;;8.90;8.00;;;;;;;;;;5071696;28;20233;-82
2022/12/18 02:21:14;;;;;;;4.20;3.90;;;;;;;;;;5071060;28;20649;-83
2022/12/18 02:23:48;;;;;;;4.23;3.80;;;;;;;;;;5085345;28;20244;-83
2022/12/18 02:26:23;;;;;;;3.57;3.23;;;;;;;;;;5061837;28;20228;-83
2022/12/18 02:28:52;;;;;;;3.10;2.87;;;;;;;;;;5069615;28;20200;-81
2022/12/18 02:31:22;;;;;;;4.07;3.40;;;;;;;;;;5071292;28;20223;-83
2022/12/18 02:33:50;;;;;;;3.63;3.10;;;;;;;;;;5071139;28;20208;-83
2022/12/18 02:36:17;;;;;;;3.30;3.00;;;;;;;;;;5071187;28;20197;-83
2022/12/18 02:38:47;;;;;;;5.43;2.67;;;;;;;;;;5070095;28;20201;-82
2022/12/18 02:41:15;;;;;;;4.33;3.93;;;;;;;;;;5070670;28;20193;-83
2022/12/18 02:43:47;;;;;;;3.77;3.07;;;;;;;;;;5058376;28;20205;-82
2022/12/18 02:46:28;;;;;;;6.03;3.87;;;;;;;;;;5069507;28;20294;-83
2022/12/18 02:48:58;;;;;;;4.47;4.07;;;;;;;;;;5061175;28;20201;-81
2022/12/18 02:51:30;;;;;;;5.93;4.00;;;;;;;;;;5070398;28;20676;-82
2022/12/18 02:54:00;;;;;;;6.33;4.57;;;;;;;;;;5071167;28;20212;-82
2022/12/18 02:56:30;;;;;;;4.40;4.00;;;;;;;;;;5051895;28;20205;-82
2022/12/18 02:59:00;;;;;;;4.07;3.73;;;;;;;;;;5063022;28;20699;-82
2022/12/18 03:01:31;;;;;;;3.77;3.47;;;;;;;;;;5064836;28;20268;-83
2022/12/18 03:04:01;;;;;;;4.20;3.60;;;;;;;;;;5064477;28;20224;-84
2022/12/18 03:06:30;;;;;;;4.27;3.77;;;;;;;;;;5070793;28;20270;-85
2022/12/18 03:08:59;;;;;;;4.30;3.90;;;;;;;;;;5056017;28;20198;-82
2022/12/18 03:14:10;;;;;;;5.43;4.03;;;;;;;;;;5067634;28;20212;-82
2022/12/18 03:16:38;;;;;;;6.63;3.80;;;;;;;;;;5070742;28;20595;-82
2022/12/18 03:19:08;;;;;;;3.93;3.60;;;;;;;;;;5070644;28;20328;-83
2022/12/18 03:21:38;;;;;;;4.87;3.70;;;;;;;;;;5069509;28;20209;-83
2022/12/18 03:24:07;;;;;;;5.90;3.60;;;;;;;;;;5070706;28;20696;-83
2022/12/18 03:26:35;;;;;;;7.47;6.37;;;;;;;;;;5057205;28;20233;-83
2022/12/18 03:29:07;;;;;;;8.77;7.87;;;;;;;;;;5068378;28;20233;-83
2022/12/18 03:31:36;;;;;;;6.40;5.80;;;;;;;;;;5070348;28;20201;-82
2022/12/18 03:34:05;;;;;;;4.10;3.70;;;;;;;;;;5057304;28;20246;-82
2022/12/18 03:36:32;;;;;;;3.70;2.97;;;;;;;;;;5070544;28;20215;-83
2022/12/18 03:38:59;;;;;;;3.33;3.03;;;;;;;;;;5070317;28;20203;-83
2022/12/18 03:41:31;;;;;;;2.73;2.53;;;;;;;;;;5068984;28;20749;-82
2022/12/18 03:44:04;;;;;;;3.70;3.37;;;;;;;;;;5070328;28;20250;-85
2022/12/18 03:46:34;;;;;;;3.50;3.13;;;;;;;;;;5068816;28;20229;-83
2022/12/18 03:49:06;;;;;;;4.17;3.77;;;;;;;;;;5066924;28;20304;-83
2022/12/18 03:51:38;;;;;;;3.57;3.27;;;;;;;;;;5065850;28;20251;-83
2022/12/18 03:54:06;;;;;;;3.50;3.20;;;;;;;;;;5061962;28;20576;-83
2022/12/18 03:56:36;;;;;;;4.97;4.50;;;;;;;;;;5070574;28;20274;-83
2022/12/18 03:59:04;;;;;;;9.27;7.27;;;;;;;;;;5070381;28;20558;-82
2022/12/18 04:01:33;;;;;;;6.77;5.50;;;;;;;;;;5070337;28;20208;-83
2022/12/18 04:04:02;;;;;;;5.30;4.80;;;;;;;;;;5059923;28;20608;-83
2022/12/18 04:06:30;;;;;;;3.70;3.40;;;;;;;;;;5061174;28;20225;-82
2022/12/18 04:08:57;;;;;;;5.43;3.53;;;;;;;;;;5074293;28;20201;-82
2022/12/18 04:11:24;;;;;;;4.00;3.70;;;;;;;;;;5059768;28;20201;-82
2022/12/18 04:13:51;;;;;;;3.47;3.17;;;;;;;;;;5073210;28;20212;-82
2022/12/18 04:16:18;;;;;;;3.70;3.37;;;;;;;;;;5066940;28;20214;-83
2022/12/18 04:18:45;;;;;;;3.63;3.33;;;;;;;;;;5068471;28;20228;-82
2022/12/18 04:21:13;;;;;;;4.17;3.47;;;;;;;;;;5073496;28;20584;-83
2022/12/18 04:23:40;;;;;;;6.50;5.90;;;;;;;;;;5052962;28;20201;-82
2022/12/18 04:26:07;;;;;;;3.90;3.53;;;;;;;;;;5073045;28;20221;-82
2022/12/18 04:28:34;;;;;;;4.00;3.67;;;;;;;;;;5072057;28;20197;-82
2022/12/18 04:31:01;;;;;;;4.73;3.77;;;;;;;;;;5069120;28;20247;-82
2022/12/18 04:33:28;;;;;;;4.67;3.37;;;;;;;;;;5073219;28;20197;-85
2022/12/18 04:35:55;;;;;;;3.67;3.37;;;;;;;;;;5066381;28;20315;-82
2022/12/18 04:38:23;;;;;;;4.83;3.43;;;;;;;;;;5070116;28;20288;-81
2022/12/18 04:40:50;;;;;;;4.77;3.20;;;;;;;;;;5067091;28;20221;-82
2022/12/18 04:43:17;;;;;;;4.07;2.80;;;;;;;;;;5070315;28;20231;-82
2022/12/18 04:45:44;;;;;;;3.43;3.10;;;;;;;;;;5065237;28;20657;-82
2022/12/18 04:48:11;;;;;;;3.40;3.10;;;;;;;;;;5064935;28;20564;-82
2022/12/18 04:50:38;;;;;;;3.30;3.00;;;;;;;;;;5069700;28;20205;-83
2022/12/18 04:53:05;;;;;;;3.23;2.97;;;;;;;;;;5064930;28;20274;-83
2022/12/18 04:55:33;;;;;;;3.30;3.00;;;;;;;;;;5068687;28;20638;-83
2022/12/18 04:58:00;;;;;;;5.83;3.47;;;;;;;;;;5059979;28;20193;-83
2022/12/18 05:00:27;;;;;;;3.50;3.20;;;;;;;;;;5063750;28;20258;-82
2022/12/18 05:02:54;;;;;;;5.30;4.80;;;;;;;;;;5064911;28;20230;-82
2022/12/18 05:05:21;;;;;;;3.90;3.53;;;;;;;;;;5050108;28;20240;-82
2022/12/18 05:07:48;;;;;;;3.90;3.57;;;;;;;;;;5064784;28;20212;-83
2022/12/18 05:10:15;;;;;;;3.70;3.40;;;;;;;;;;5071322;28;20699;-81
2022/12/18 05:15:39;;;;;;;4.70;3.17;;;;;;;;;;5127253;27;20578;-84
2022/12/18 05:18:05;;;;;;;4.97;3.67;;;;;;;;;;5120251;27;20198;-82
2022/12/18 05:20:33;;;;;;;2.27;2.07;;;;;;;;;;5128314;27;20206;-82
2022/12/18 05:23:00;;;;;;;2.70;2.50;;;;;;;;;;5128676;27;20199;-82
2022/12/18 05:25:27;;;;;;;2.87;2.43;;;;;;;;;;5128907;27;20207;-81
2022/12/18 05:27:54;;;;;;;2.70;2.50;;;;;;;;;;5128483;27;20741;-81
2022/12/18 05:30:20;;;;;;;3.33;3.03;;;;;;;;;;5128019;27;20213;-81
2022/12/18 05:32:49;;;;;;;6.37;5.20;;;;;;;;;;5128278;27;21005;-82
2022/12/18 05:35:16;;;;;;;4.37;3.43;;;;;;;;;;5124339;28;20226;-82
2022/12/18 05:37:42;;;;;;;5.73;4.37;;;;;;;;;;5122144;27;20624;-81
2022/12/18 05:40:12;;;;;;;6.23;4.87;;;;;;;;;;5127247;27;20198;-81
2022/12/18 05:42:39;;;;;;;5.83;5.27;;;;;;;;;;5125245;27;20260;-81
2022/12/18 05:45:07;;;;;;;2.80;2.60;;;;;;;;;;5123404;28;20255;-81
2022/12/18 05:47:34;;;;;;;3.27;2.97;;;;;;;;;;5128041;27;20234;-81
2022/12/18 05:50:02;;;;;;;3.20;2.40;;;;;;;;;;5113120;28;20202;-81
2022/12/18 05:52:29;;;;;;;3.70;2.90;;;;;;;;;;5127314;27;20749;-82
2022/12/18 05:54:56;;;;;;;10.37;8.30;;;;;;;;;;5122751;27;20220;-80
2022/12/18 05:57:22;;;;;;;8.60;7.70;;;;;;;;;;5123029;28;20716;-80
2022/12/18 05:59:49;;;;;;;3.87;3.47;;;;;;;;;;5115276;27;20607;-80
2022/12/18 06:02:16;;;;;;;3.43;3.17;;;;;;;;;;5122700;27;20203;-81
2022/12/18 06:04:43;;;;;;;3.17;2.83;;;;;;;;;;5128193;27;20203;-80
2022/12/18 06:07:11;;;;;;;16.83;15.27;;;;;;;;;;5116341;27;20218;-82
2022/12/18 06:09:37;;;;;;;12.23;11.13;;;;;;;;;;5127522;27;20203;-80
2022/12/18 06:12:05;;;;;;;5.23;4.80;;;;;;;;;;5127858;27;20255;-80
2022/12/18 06:14:31;;;;;;;12.40;9.90;;;;;;;;;;5126984;27;20261;-81
2022/12/18 06:16:58;;;;;;;6.00;5.40;;;;;;;;;;5113945;27;20199;-80
2022/12/18 06:19:25;;;;;;;6.07;4.47;;;;;;;;;;5128028;27;20213;-80
2022/12/18 06:21:53;;;;;;;10.03;8.10;;;;;;;;;;5127255;27;20206;-81
2022/12/18 06:24:21;;;;;;;5.13;4.60;;;;;;;;;;5127858;27;20738;-79
2022/12/18 06:26:47;;;;;;;7.50;6.80;;;;;;;;;;5114700;27;20199;-80
2022/12/18 06:29:14;;;;;;;3.33;2.97;;;;;;;;;;5113327;28;20257;-80
2022/12/18 06:31:41;;;;;;;2.47;2.30;;;;;;;;;;5107483;28;20200;-83
2022/12/18 06:34:08;;;;;;;3.40;3.10;;;;;;;;;;5109710;27;20231;-81
2022/12/18 06:36:35;;;;;;;8.73;7.87;;;;;;;;;;5110800;27;20692;-81
2022/12/18 06:39:02;;;;;;;10.33;8.13;;;;;;;;;;5115475;27;20280;-81
2022/12/18 06:41:30;;;;;;;1.93;1.83;;;;;;;;;;5111375;27;20261;-82
2022/12/18 06:44:00;;;;;;;3.00;2.70;;;;;;;;;;5119751;27;20195;-80
2022/12/18 06:46:27;;;;;;;7.23;5.80;;;;;;;;;;5110598;27;20677;-83
2022/12/18 06:48:54;;;;;;;5.33;4.20;;;;;;;;;;5111771;27;20249;-81
2022/12/18 06:51:21;;;;;;;3.70;2.47;;;;;;;;;;5118532;27;20192;-80
2022/12/18 06:53:49;;;;;;;2.93;2.47;;;;;;;;;;5117687;27;20198;-81
2022/12/18 06:56:16;;;;;;;4.97;4.47;;;;;;;;;;5116908;27;20207;-81
2022/12/18 06:58:44;;;;;;;4.70;4.13;;;;;;;;;;5115234;27;20195;-81
2022/12/18 07:01:12;;;;;;;5.67;4.33;;;;;;;;;;5112281;28;20211;-81
2022/12/18 07:03:39;;;;;;;7.13;4.70;;;;;;;;;;5110049;28;20199;-81
2022/12/18 07:06:07;;;;;;;9.40;8.13;;;;;;;;;;5112606;28;20203;-82
2022/12/18 07:08:34;;;;;;;6.37;5.77;;;;;;;;;;5112234;28;20203;-81
2022/12/18 07:11:04;;;;;;;3.27;2.97;;;;;;;;;;5112513;28;20199;-81
2022/12/18 07:13:31;;;;;;;2.90;2.30;;;;;;;;;;5111590;28;20235;-81
2022/12/18 07:16:07;;;;;;;2.87;2.53;;;;;;;;;;5111953;28;20223;-81
2022/12/18 07:18:33;;;;;;;2.67;2.47;;;;;;;;;;5112829;28;20199;-82
2022/12/18 07:21:04;;;;;;;2.33;2.13;;;;;;;;;;5111352;28;20207;-81
2022/12/18 07:23:32;;;;;;;3.00;2.50;;;;;;;;;;5112447;28;20290;-81
2022/12/18 07:26:03;;;;;;;2.70;2.50;;;;;;;;;;5110256;28;20203;-81
2022/12/18 07:28:29;;;;;;;15.33;12.53;;;;;;;;;;5113063;28;20227;-80
2022/12/18 07:30:56;;;;;;;9.67;8.67;;;;;;;;;;5112248;28;20199;-81
2022/12/18 07:33:25;;;;;;;6.03;5.43;;;;;;;;;;5111248;28;20195;-80
2022/12/18 07:35:51;;;;;;;5.33;4.33;;;;;;;;;;5111836;28;20224;-81
2022/12/18 07:38:18;;;;;;;24.13;16.67;;;;;;;;;;5102467;28;20208;-82
2022/12/18 07:40:45;;;;;;;11.23;9.63;;;;;;;;;;5112109;28;20199;-82
2022/12/18 07:43:12;;;;;;;9.90;8.57;;;;;;;;;;5112852;28;20215;-84
2022/12/18 07:45:39;;;;;;;7.67;6.97;;;;;;;;;;5112391;28;20212;-82
2022/12/18 07:48:06;;;;;;;6.00;4.73;;;;;;;;;;5111888;28;20708;-82
2022/12/18 07:50:35;;;;;;;7.90;5.30;;;;;;;;;;5111061;28;20207;-83
2022/12/18 07:53:04;;;;;;;18.00;12.53;;;;;;;;;;5109963;28;20670;-84
2022/12/18 07:55:31;;;;;;;4.00;3.60;;;;;;;;;;5111120;28;20311;-83
2022/12/18 07:58:01;;;;;;;8.83;6.07;;;;;;;;;;5112316;28;20202;-83
2022/12/18 08:00:29;;;;;;;11.47;6.60;;;;;;;;;;5112786;28;20286;-83
2022/12/18 08:02:56;;;;;;;11.60;7.70;;;;;;;;;;5110513;27;20209;-86
2022/12/18 08:05:23;;;;;;;5.13;3.47;;;;;;;;;;5121136;27;20196;-82
2022/12/18 08:07:51;;;;;;;6.20;4.60;;;;;;;;;;5110732;28;20268;-82
2022/12/18 08:10:18;;;;;;;7.93;6.93;;;;;;;;;;5098403;28;20207;-82
2022/12/18 08:12:46;;;;;;;9.57;7.13;;;;;;;;;;5111114;28;20208;-82
2022/12/18 08:15:15;;;;;;;5.53;5.03;;;;;;;;;;5096139;28;20240;-84
2022/12/18 08:17:42;;;;;;;5.13;3.60;;;;;;;;;;5103125;28;20208;-83
2022/12/18 08:20:10;;;;;;;4.57;3.77;;;;;;;;;;5103409;28;20268;-83
2022/12/18 08:22:40;;;;;;;3.93;3.53;;;;;;;;;;5098126;28;20204;-83
2022/12/18 08:25:10;;;;;;;3.90;3.53;;;;;;;;;;5097189;28;20216;-83
2022/12/18 08:27:38;;;;;;;6.80;6.20;;;;;;;;;;5099845;28;20239;-81
2022/12/18 08:30:06;;;;;;;4.20;3.80;;;;;;;;;;5104680;28;20199;-83
2022/12/18 08:32:34;;;;;;;4.27;3.60;;;;;;;;;;5111257;28;20697;-83
2022/12/18 08:35:01;;;;;;;16.47;10.20;;;;;;;;;;5110275;28;20263;-82
2022/12/18 08:37:30;;;;;;;7.50;6.53;;;;;;;;;;5111303;28;20210;-82
2022/12/18 08:39:57;;;;;;;7.20;4.50;;;;;;;;;;5111058;28;20694;-82
2022/12/18 08:45:10;;;;;;;6.13;4.63;;;;;;;;;;5111540;28;20325;-82
2022/12/18 08:47:37;;;;;;;8.90;7.23;;;;;;;;;;5093750;28;20199;-82
2022/12/18 08:50:05;;;;;;;4.83;4.30;;;;;;;;;;5096113;28;20264;-83
2022/12/18 08:52:33;;;;;;;5.10;4.20;;;;;;;;;;5111936;28;20203;-86
2022/12/18 08:55:00;;;;;;;6.73;4.50;;;;;;;;;;5097924;28;20234;-83
2022/12/18 08:57:28;;;;;;;4.93;4.27;;;;;;;;;;5096730;28;20204;-83
2022/12/18 08:59:57;;;;;;;4.83;4.00;;;;;;;;;;5108248;28;20630;-83
2022/12/18 09:02:24;;;;;;;19.20;8.70;;;;;;;;;;5096077;28;20290;-83
2022/12/18 09:04:52;;;;;;;25.53;15.30;;;;;;;;;;5103636;28;20201;-83
2022/12/18 09:07:19;;;;;;;16.13;9.87;;;;;;;;;;5097530;28;20227;-82
2022/12/18 09:09:46;;;;;;;11.90;8.93;;;;;;;;;;5102717;28;20214;-82
2022/12/18 09:12:13;;;;;;;20.30;13.80;;;;;;;;;;5111233;28;20203;-81
2022/12/18 09:14:42;;;;;;;8.93;7.57;;;;;;;;;;5111106;28;20227;-81
2022/12/18 09:17:10;;;;;;;9.23;6.93;;;;;;;;;;5110732;28;20200;-80
2022/12/18 09:19:37;;;;;;;8.50;6.73;;;;;;;;;;5108160;28;20207;-82
2022/12/18 09:22:04;;;;;;;14.40;11.97;;;;;;;;;;5103450;28;20195;-81
2022/12/18 09:24:31;;;;;;;12.77;11.33;;;;;;;;;;5097017;28;20271;-81
2022/12/18 09:26:58;;;;;;;14.53;12.13;;;;;;;;;;5097423;28;20199;-82
2022/12/18 09:29:25;;;;;;;8.37;6.57;;;;;;;;;;5098881;28;20195;-81
2022/12/18 09:31:53;;;;;;;5.37;4.80;;;;;;;;;;5100929;28;20196;-81
2022/12/18 09:34:21;;;;;;;10.20;8.27;;;;;;;;;;5092241;28;20200;-81
2022/12/18 09:36:48;;;;;;;9.80;7.17;;;;;;;;;;5093720;28;20293;-82
2022/12/18 09:39:16;;;;;;;28.10;25.20;;;;;;;;;;5108735;28;20206;-82
2022/12/18 09:41:47;;;;;;;33.33;18.63;;;;;;;;;;5108805;28;20203;-82
2022/12/18 09:44:26;;;;;;;6.40;4.90;;;;;;;;;;5097032;28;20223;-82
2022/12/18 09:47:04;;;;;;;3.93;3.63;;;;;;;;;;5109961;28;20696;-82
2022/12/18 09:49:37;;;;;;;21.53;10.83;;;;;;;;;;5110487;28;20253;-82
2022/12/18 09:52:06;;;;;;;5.80;4.90;;;;;;;;;;5110413;28;20584;-81
2022/12/18 09:54:37;;;;;;;13.20;8.53;;;;;;;;;;5110447;28;20203;-82
2022/12/18 09:57:04;;;;;;;6.47;4.50;;;;;;;;;;5110351;28;20283;-82
2022/12/18 09:59:35;;;;;;;5.00;3.37;;;;;;;;;;5110096;28;20196;-82
2022/12/18 10:02:16;;;;;;;4.03;3.33;;;;;;;;;;5114048;28;20201;-82
2022/12/18 10:04:43;;;;;;;7.13;4.73;;;;;;;;;;5114085;28;20203;-82
2022/12/18 10:07:17;;;;;;;4.47;3.80;;;;;;;;;;5104850;28;20200;-82
2022/12/18 10:09:49;;;;;;;5.33;4.43;;;;;;;;;;5111803;28;20195;-82
2022/12/18 10:12:21;;;;;;;4.27;3.87;;;;;;;;;;5114544;27;20207;-82
2022/12/18 10:14:54;;;;;;;5.53;4.23;;;;;;;;;;5100045;28;20223;-82
2022/12/18 10:17:28;;;;;;;3.73;3.17;;;;;;;;;;5114386;27;20195;-82
2022/12/18 10:19:58;;;;;;;5.27;4.77;;;;;;;;;;5113903;28;20199;-81
2022/12/18 10:22:39;;;;;;;13.07;9.70;;;;;;;;;;5113752;28;20226;-82
2022/12/18 10:25:14;;;;;;;15.10;9.30;;;;;;;;;;5113710;28;20211;-82
2022/12/18 10:27:41;;;;;;;5.77;5.17;;;;;;;;;;5114396;28;20281;-82
2022/12/18 10:30:16;;;;;;;6.10;5.17;;;;;;;;;;5114282;28;20282;-81
2022/12/18 10:32:47;;;;;;;9.43;6.67;;;;;;;;;;5113938;28;20294;-82
2022/12/18 10:35:19;;;;;;;30.23;18.53;;;;;;;;;;5113774;28;20611;-82
2022/12/18 10:38:06;;;;;;;27.27;19.10;;;;;;;;;;5114183;28;20294;-81
2022/12/18 10:40:33;;;;;;;7.93;7.13;;;;;;;;;;5101523;28;20690;-81
2022/12/18 10:43:05;;;;;;;4.37;3.90;;;;;;;;;;5113771;28;20199;-81
2022/12/18 10:45:33;;;;;;;5.13;4.33;;;;;;;;;;5113643;28;20568;-82
2022/12/18 10:48:01;;;;;;;6.57;5.43;;;;;;;;;;5113307;28;20206;-81
2022/12/18 10:50:31;;;;;;;7.40;6.13;;;;;;;;;;5113442;28;20239;-80
2022/12/18 10:52:59;;;;;;;8.17;5.93;;;;;;;;;;5113362;27;20202;-81
2022/12/18 10:55:28;;;;;;;28.00;16.03;;;;;;;;;;5113249;27;20242;-82
2022/12/18 10:57:58;;;;;;;12.20;8.33;;;;;;;;;;5113229;28;20260;-82
2022/12/18 11:00:27;;;;;;;6.67;4.80;;;;;;;;;;5113482;28;20272;-81
2022/12/18 11:02:55;;;;;;;22.00;19.53;;;;;;;;;;5112920;28;20279;-81
2022/12/18 11:05:29;;;;;;;11.03;9.90;;;;;;;;;;5113308;28;20204;-81
2022/12/18 11:07:56;;;;;;;6.50;5.90;;;;;;;;;;5113221;28;20350;-81
2022/12/18 11:10:25;;;;;;;6.97;5.10;;;;;;;;;;5112945;28;20287;-81
2022/12/18 11:12:56;;;;;;;6.03;4.90;;;;;;;;;;5095559;28;20197;-81
2022/12/18 11:15:25;;;;;;;6.40;5.10;;;;;;;;;;5100354;27;20228;-81
2022/12/18 11:17:55;;;;;;;6.83;6.20;;;;;;;;;;5112123;28;20203;-87
2022/12/18 11:20:31;;;;;;;5.77;5.17;;;;;;;;;;5100705;27;20219;-80
2022/12/18 11:22:59;;;;;;;6.60;5.03;;;;;;;;;;5109099;28;20261;-81
2022/12/18 11:25:26;;;;;;;8.57;7.53;;;;;;;;;;5112366;28;20223;-81
2022/12/18 11:27:55;;;;;;;8.73;7.13;;;;;;;;;;5112746;28;20191;-81
2022/12/18 11:30:24;;;;;;;9.03;8.10;;;;;;;;;;5106680;28;20676;-81
2022/12/18 11:32:53;;;;;;;13.40;10.57;;;;;;;;;;5096124;28;20203;-81
2022/12/18 11:35:22;;;;;;;47.67;27.97;;;;;;;;;;5100700;28;20193;-82
2022/12/18 11:37:57;;;;;;;28.90;18.87;;;;;;;;;;5105533;27;20261;-81
2022/12/18 11:40:28;;;;;;;11.50;8.63;;;;;;;;;;5105116;28;20639;-81
2022/12/18 11:42:59;;;;;;;6.47;5.60;;;;;;;;;;5099311;28;20191;-80
2022/12/18 11:45:30;;;;;;;9.80;5.53;;;;;;;;;;5112356;28;20727;-81
2022/12/18 11:48:00;;;;;;;7.90;7.10;;;;;;;;;;5112246;28;20196;-81
2022/12/18 11:50:32;;;;;;;15.00;8.93;;;;;;;;;;5106663;28;21025;-81
2022/12/18 11:53:00;;;;;;;8.63;7.17;;;;;;;;;;5111102;28;20250;-80
2022/12/18 11:55:33;;;;;;;7.17;6.10;;;;;;;;;;5101657;28;20592;-80
2022/12/18 11:58:04;;;;;;;8.30;5.67;;;;;;;;;;5106470;28;20253;-81
2022/12/18 12:00:31;;;;;;;8.33;5.63;;;;;;;;;;5099691;28;20200;-81
2022/12/18 12:03:22;;;;;;;5.47;4.87;;;;;;;;;;5112150;28;20211;-81
2022/12/18 12:05:58;;;;;;;18.30;13.67;;;;;;;;;;5110631;28;20288;-81
2022/12/18 12:08:34;;;;;;;13.43;12.07;;;;;;;;;;5112199;28;20191;-81
2022/12/18 12:11:07;;;;;;;16.80;13.93;;;;;;;;;;5099229;28;20273;-81
2022/12/18 12:13:45;;;;;;;11.13;10.00;;;;;;;;;;5108806;28;20247;-81
2022/12/18 12:16:18;;;;;;;16.23;12.50;;;;;;;;;;5098614;28;20223;-81
2022/12/18 12:18:57;;;;;;;14.17;10.53;;;;;;;;;;5111863;28;20237;-81
2022/12/18 12:21:29;;;;;;;9.37;7.83;;;;;;;;;;5111929;28;20584;-81
2022/12/18 12:24:03;;;;;;;8.00;7.20;;;;;;;;;;5111137;28;20570;-81
2022/12/18 12:26:34;;;;;;;9.50;7.47;;;;;;;;;;5111911;28;20296;-82
2022/12/18 12:29:20;;;;;;;16.03;11.80;;;;;;;;;;5106010;28;20667;-81
2022/12/18 12:31:58;;;;;;;9.57;7.83;;;;;;;;;;5106371;28;20207;-82
2022/12/18 12:34:27;;;;;;;11.13;7.70;;;;;;;;;;5111769;28;20570;-81
2022/12/18 12:37:08;;;;;;;10.40;7.67;;;;;;;;;;5107622;28;20284;-81
2022/12/18 12:39:38;;;;;;;8.40;7.33;;;;;;;;;;5104465;28;20209;-82
2022/12/18 12:44:57;;;;;;;9.67;7.93;;;;;;;;;;5111526;28;20203;-82
2022/12/18 12:47:28;;;;;;;10.27;6.77;;;;;;;;;;5111859;28;20224;-82
2022/12/18 12:49:58;;;;;;;5.60;5.03;;;;;;;;;;5111687;28;20207;-82
2022/12/18 12:52:29;;;;;;;10.90;6.97;;;;;;;;;;5111443;28;20203;-82
2022/12/18 12:54:58;;;;;;;8.77;7.20;;;;;;;;;;5110744;28;20299;-82
2022/12/18 12:57:32;;;;;;;6.53;5.93;;;;;;;;;;5111314;28;20612;-83
2022/12/18 13:00:02;;;;;;;14.57;12.43;;;;;;;;;;5110048;28;20401;-82
2022/12/18 13:02:32;;;;;;;16.57;14.70;;;;;;;;;;5111406;28;20200;-83
2022/12/18 13:05:03;;;;;;;12.40;10.53;;;;;;;;;;5116055;28;20202;-85
2022/12/18 13:07:36;;;;;;;15.87;13.00;;;;;;;;;;5108347;28;20207;-85
2022/12/18 13:10:25;;;;;;;10.80;9.00;;;;;;;;;;5095465;28;20606;-82
2022/12/18 13:12:57;;;;;;;11.10;10.00;;;;;;;;;;5106668;28;20202;-82
2022/12/18 13:15:33;;;;;;;19.60;13.97;;;;;;;;;;5113687;28;20234;-82
2022/12/18 13:18:19;;;;;;;6.23;5.60;;;;;;;;;;5103940;28;20223;-82
2022/12/18 13:20:48;;;;;;;6.43;5.70;;;;;;;;;;5086558;28;20199;-82
2022/12/18 13:23:36;;;;;;;4.67;4.27;;;;;;;;;;5100356;28;20284;-81
2022/12/18 13:26:35;;;;;;;17.67;13.43;;;;;;;;;;5091837;28;20199;-82
2022/12/18 13:29:05;;;;;;;14.23;9.80;;;;;;;;;;5105730;28;20638;-82
2022/12/18 13:32:07;;;;;;;20.37;13.47;;;;;;;;;;5101931;28;20207;-81
2022/12/18 13:34:37;;;;;;;16.80;10.80;;;;;;;;;;5096975;28;20222;-81
2022/12/18 13:37:41;;;;;;;4.87;4.37;;;;;;;;;;5113714;28;20227;-81
2022/12/18 13:40:55;;;;;;;6.77;4.60;;;;;;;;;;5114652;28;20263;-81
2022/12/18 13:43:25;;;;;;;11.77;7.37;;;;;;;;;;5114732;28;20268;-82
2022/12/18 13:46:04;;;;;;;11.97;8.43;;;;;;;;;;5114271;28;20203;-82
2022/12/18 13:48:33;;;;;;;5.40;3.80;;;;;;;;;;5114890;28;20590;-81
2022/12/18 13:51:03;;;;;;;4.87;4.33;;;;;;;;;;5114318;28;20276;-81
2022/12/18 13:53:33;;;;;;;13.80;8.07;;;;;;;;;;5114614;28;20200;-81
2022/12/18 13:56:00;;;;;;;8.37;6.57;;;;;;;;;;5100534;28;20203;-81
2022/12/18 13:58:27;;;;;;;21.80;14.83;;;;;;;;;;5112576;28;20207;-81
2022/12/18 14:00:53;;;;;;;18.43;12.13;;;;;;;;;;5114302;28;20195;-81
2022/12/18 14:03:25;;;;;;;8.87;6.23;;;;;;;;;;5114127;28;20207;-81
2022/12/18 14:05:58;;;;;;;5.13;4.53;;;;;;;;;;5114120;28;20769;-81
2022/12/18 14:08:26;;;;;;;3.57;3.27;;;;;;;;;;5113893;28;20204;-81
2022/12/18 14:10:55;;;;;;;5.20;3.97;;;;;;;;;;5114097;28;20199;-81
2022/12/18 14:13:27;;;;;;;10.20;6.63;;;;;;;;;;5113743;28;20590;-81
2022/12/18 14:15:55;;;;;;;24.00;19.23;;;;;;;;;;5100616;28;20700;-81
2022/12/18 14:18:24;;;;;;;22.03;17.83;;;;;;;;;;5111631;28;20199;-81
2022/12/18 14:20:53;;;;;;;12.00;8.80;;;;;;;;;;5113903;27;20203;-81
2022/12/18 14:23:31;;;;;;;5.60;4.67;;;;;;;;;;5114158;28;20200;-81
2022/12/18 14:25:58;;;;;;;12.60;11.30;;;;;;;;;;5100966;28;20199;-81
2022/12/18 14:28:26;;;;;;;8.63;5.07;;;;;;;;;;5099952;28;20636;-81
2022/12/18 14:30:54;;;;;;;4.33;3.70;;;;;;;;;;5113710;28;20682;-82
2022/12/18 14:33:25;;;;;;;5.20;4.13;;;;;;;;;;5113347;28;20682;-82
2022/12/18 14:35:58;;;;;;;3.60;3.30;;;;;;;;;;5113549;28;20212;-82
2022/12/18 14:38:30;;;;;;;5.30;4.53;;;;;;;;;;5113589;28;20230;-81
2022/12/18 14:40:58;;;;;;;8.30;5.93;;;;;;;;;;5113505;28;20685;-81
2022/12/18 14:43:28;;;;;;;11.83;8.43;;;;;;;;;;5113010;28;20199;-82
2022/12/18 14:45:55;;;;;;;33.80;23.10;;;;;;;;;;5113587;28;20226;-81
2022/12/18 14:48:38;;;;;;;10.63;8.93;;;;;;;;;;5113093;28;20203;-81
2022/12/18 14:51:06;;;;;;;10.17;6.20;;;;;;;;;;5099780;28;20215;-81
2022/12/18 14:53:36;;;;;;;9.23;6.97;;;;;;;;;;5113185;28;20196;-80
2022/12/18 14:56:14;;;;;;;7.67;6.30;;;;;;;;;;5112628;28;20204;-81
2022/12/18 14:58:46;;;;;;;7.40;6.53;;;;;;;;;;5113576;28;20199;-81
2022/12/18 15:01:20;;;;;;;5.73;5.13;;;;;;;;;;5113131;28;20191;-81
2022/12/18 15:03:48;;;;;;;8.10;6.70;;;;;;;;;;5113211;28;20207;-82
2022/12/18 15:06:22;;;;;;;9.10;7.90;;;;;;;;;;5112577;28;20207;-81
2022/12/18 15:08:49;;;;;;;81.90;53.40;;;;;;;;;;5111366;28;20210;-81